createdAt,value
2017-08-25T17:12:56.351Z,100875.08
2017-08-25T17:15:23.591Z,100867.78
2017-08-25T17:17:50.942Z,100870.82
2017-08-25T17:20:18.404Z,100874.80
2017-08-25T17:22:45.952Z,100870.73
2017-08-25T17:25:13.122Z,100869.41
2017-08-25T17:27:40.649Z,100869.41
2017-08-25T17:30:07.928Z,100875.66
2017-08-25T17:32:35.573Z,100876.98
2017-08-25T17:35:02.845Z,100875.23
2017-08-25T17:37:30.454Z,100884.94
2017-08-25T17:39:57.805Z,100888.09
2017-08-25T17:42:25.022Z,100894.28
2017-08-25T17:44:52.561Z,100891.61
2017-08-25T17:47:19.773Z,100892.09
2017-08-25T17:49:47.276Z,100887.61
2017-08-25T17:52:14.733Z,100883.18
2017-08-25T17:54:42.378Z,100889.86
2017-08-25T17:57:09.550Z,100879.17
2017-08-25T17:59:36.728Z,100881.36
2017-08-25T18:02:04.136Z,100876.50
2017-08-25T18:04:31.310Z,100877.84
2017-08-25T18:06:58.742Z,100874.74
2017-08-25T18:09:25.987Z,100878.27
2017-08-25T18:11:53.530Z,100883.12
2017-08-25T18:14:20.933Z,100885.80
2017-08-25T18:16:48.391Z,100887.61
2017-08-25T18:19:15.835Z,100886.68
2017-08-25T18:21:43.009Z,100882.27
2017-08-25T18:24:10.450Z,100875.11
2017-08-25T18:26:37.908Z,100874.69
2017-08-25T18:29:05.555Z,100879.12
2017-08-25T18:31:33.133Z,100884.44
2017-08-25T18:34:00.763Z,100888.52
2017-08-25T18:36:28.006Z,100891.19
2017-08-25T18:38:55.173Z,100887.19
2017-08-25T18:41:22.842Z,100885.37
2017-08-25T18:43:50.136Z,100887.61
2017-08-25T18:46:17.625Z,100892.05
2017-08-25T18:48:45.142Z,100895.97
2017-08-25T18:51:12.793Z,100898.21
2017-08-25T18:53:39.976Z,100895.97
2017-08-25T18:56:07.599Z,100888.02
2017-08-25T18:58:34.787Z,100892.88
2017-08-25T19:01:02.158Z,100896.02
2017-08-25T19:03:29.480Z,100900.05
2017-08-25T19:05:57.842Z,100896.95
2017-08-25T19:08:25.302Z,100898.72
2017-08-25T19:10:52.756Z,100896.05
2017-08-25T19:13:20.020Z,100899.57
2017-08-25T19:15:47.538Z,100892.89
2017-08-25T19:18:14.820Z,100894.23
2017-08-25T19:20:42.274Z,100893.78
2017-08-25T19:23:09.732Z,100894.23
2017-08-25T19:25:36.916Z,100899.55
2017-08-25T19:28:04.087Z,100895.56
2017-08-25T19:30:31.445Z,100894.20
2017-08-25T19:32:58.624Z,100903.12
2017-08-25T19:35:26.180Z,100892.45
2017-08-25T19:37:53.747Z,100886.22
2017-08-25T19:40:21.933Z,100886.70
2017-08-25T19:42:49.533Z,100883.55
2017-08-25T19:45:16.845Z,100888.89
2017-08-25T19:47:44.311Z,100891.11
2017-08-25T19:50:11.481Z,100891.05
2017-08-25T19:52:38.649Z,100892.88
2017-08-25T19:55:06.171Z,100888.89
2017-08-25T19:57:33.638Z,100895.54
2017-08-25T20:00:00.973Z,100895.11
2017-08-25T20:02:28.549Z,100893.30
2017-08-25T20:04:55.884Z,100898.16
2017-08-25T20:07:23.350Z,100893.30
2017-08-25T20:09:50.880Z,100891.54
2017-08-25T20:12:18.444Z,100891.05
2017-08-25T20:14:45.787Z,100888.39
2017-08-25T20:17:13.130Z,100883.95
2017-08-25T20:19:40.945Z,100887.05
2017-08-25T20:22:08.464Z,100884.44
2017-08-25T20:24:36.173Z,100879.89
2017-08-25T20:27:03.617Z,100874.13
2017-08-25T20:29:30.782Z,100869.27
2017-08-25T20:31:57.945Z,100870.17
2017-08-25T20:34:25.945Z,100863.45
2017-08-25T20:36:53.520Z,100866.59
2017-08-25T20:39:20.904Z,100873.22
2017-08-25T20:41:48.391Z,100866.97
2017-08-25T20:44:15.819Z,100862.16
2017-08-25T20:46:43.342Z,100867.02
2017-08-25T20:49:10.858Z,100866.06
2017-08-25T20:51:38.651Z,100861.69
2017-08-25T20:54:06.265Z,100869.21
2017-08-25T20:56:33.712Z,100857.67
2017-08-25T20:59:01.353Z,100861.20
2017-08-25T21:01:30.253Z,100865.27
2017-08-25T21:03:57.465Z,100862.11
2017-08-25T21:06:24.788Z,100862.53
2017-08-25T21:08:52.216Z,100858.11
2017-08-25T21:11:19.386Z,100864.78
2017-08-25T21:13:46.573Z,100865.19
2017-08-25T21:16:14.003Z,100865.20
2017-08-25T21:18:41.172Z,100863.02
2017-08-25T21:21:08.345Z,100856.77
2017-08-25T21:23:35.746Z,100852.28
2017-08-25T21:26:03.197Z,100854.05
2017-08-25T21:28:30.716Z,100858.94
2017-08-25T21:30:57.889Z,100855.84
2017-08-25T21:33:25.451Z,100858.05
2017-08-25T21:35:52.726Z,100864.72
2017-08-25T21:38:19.909Z,100863.31
2017-08-25T21:40:47.456Z,100863.37
2017-08-25T21:43:15.000Z,100861.06
2017-08-25T21:45:42.562Z,100857.97
2017-08-25T21:48:09.733Z,100859.30
2017-08-25T21:50:37.475Z,100854.88
2017-08-25T21:53:04.655Z,100857.54
2017-08-25T21:55:32.077Z,100856.63
2017-08-25T21:57:59.249Z,100854.45
2017-08-25T22:00:26.644Z,100854.92
2017-08-25T22:02:54.146Z,100858.94
2017-08-25T22:05:21.655Z,100859.78
2017-08-25T22:07:48.824Z,100854.88
2017-08-25T22:10:16.212Z,100856.20
2017-08-25T22:12:43.395Z,100858.45
2017-08-25T22:15:11.126Z,100852.20
2017-08-25T22:17:38.321Z,100838.42
2017-08-25T22:20:05.784Z,100825.12
2017-08-25T22:22:33.259Z,100830.47
2017-08-25T22:25:00.956Z,100834.91
2017-08-25T22:27:28.145Z,100832.12
2017-08-25T22:29:55.318Z,100832.60
2017-08-25T22:32:22.716Z,100828.53
2017-08-25T22:34:50.216Z,100825.50
2017-08-25T22:37:17.735Z,100818.83
2017-08-25T22:39:45.083Z,100827.26
2017-08-25T22:42:12.720Z,100827.74
2017-08-25T22:44:40.072Z,100833.51
2017-08-25T22:47:07.256Z,100837.52
2017-08-25T22:49:34.420Z,100844.61
2017-08-25T22:52:01.615Z,100838.80
2017-08-25T22:54:28.896Z,100834.84
2017-08-25T22:56:56.083Z,100828.59
2017-08-25T22:59:23.503Z,100828.11
2017-08-25T23:01:51.275Z,100829.02
2017-08-25T23:04:18.477Z,100824.16
2017-08-25T23:06:45.678Z,100822.83
2017-08-25T23:09:12.858Z,100813.54
2017-08-25T23:11:40.282Z,100813.86
2017-08-25T23:14:09.530Z,100816.58
2017-08-25T23:16:36.805Z,100825.98
2017-08-25T23:19:04.085Z,100817.01
2017-08-25T23:21:31.607Z,100815.64
2017-08-25T23:23:58.996Z,100815.30
2017-08-25T23:26:26.169Z,100817.91
2017-08-25T23:28:53.681Z,100820.10
2017-08-25T23:31:21.173Z,100814.34
2017-08-25T23:33:48.355Z,100806.75
2017-08-25T23:36:15.669Z,100802.30
2017-08-25T23:38:42.849Z,100803.23
2017-08-25T23:41:10.276Z,100801.84
2017-08-25T23:43:37.467Z,100790.84
2017-08-25T23:46:05.001Z,100793.94
2017-08-25T23:48:32.191Z,100796.07
2017-08-25T23:50:59.376Z,100789.87
2017-08-25T23:53:26.645Z,100786.27
2017-08-25T23:55:57.177Z,100784.05
2017-08-25T23:58:26.448Z,100786.73
